sensor_id;sensor_type;location;lat;lon;timestamp;temperature;humidity
10451;DHT22;5273;51.290;6.918;2024-03-02T00:06:28;7.90;99.90
10451;DHT22;5273;51.290;6.918;2024-03-02T00:08:58;7.70;99.90
10451;DHT22;5273;51.290;6.918;2024-03-02T00:23:48;7.80;99.90
10451;DHT22;5273;51.290;6.918;2024-03-02T00:31:12;8.00;99.90
10451;DHT22;5273;51.290;6.918;2024-03-02T00:33:42;8.00;99.90
10451;DHT22;5273;51.290;6.918;2024-03-02T00:36:10;8.00;99.90
10451;DHT22;5273;51.290;6.918;2024-03-02T00:38:44;8.20;99.90
10451;DHT22;5273;51.290;6.918;2024-03-02T00:41:17;8.30;99.90
10451;DHT22;5273;51.290;6.918;2024-03-02T00:43:49;10.30;99.90
10451;DHT22;5273;51.290;6.918;2024-03-02T00:48:54;8.10;99.90
10451;DHT22;5273;51.290;6.918;2024-03-02T00:51:22;8.10;99.90
10451;DHT22;5273;51.290;6.918;2024-03-02T00:56:18;8.10;99.90
10451;DHT22;5273;51.290;6.918;2024-03-02T01:11:02;8.00;99.90
10451;DHT22;5273;51.290;6.918;2024-03-02T01:13:30;8.30;99.90
10451;DHT22;5273;51.290;6.918;2024-03-02T01:23:21;8.70;99.90
10451;DHT22;5273;51.290;6.918;2024-03-02T01:30:44;8.30;99.90
10451;DHT22;5273;51.290;6.918;2024-03-02T01:40:33;7.40;99.90
10451;DHT22;5273;51.290;6.918;2024-03-02T01:45:30;8.10;99.90
10451;DHT22;5273;51.290;6.918;2024-03-02T01:47:59;8.00;99.90
10451;DHT22;5273;51.290;6.918;2024-03-02T01:50:28;7.80;99.90
10451;DHT22;5273;51.290;6.918;2024-03-02T01:57:51;8.00;99.90
10451;DHT22;5273;51.290;6.918;2024-03-02T02:00:20;8.10;99.90
10451;DHT22;5273;51.290;6.918;2024-03-02T02:02:48;8.10;99.90
10451;DHT22;5273;51.290;6.918;2024-03-02T02:05:17;8.10;99.90
10451;DHT22;5273;51.290;6.918;2024-03-02T02:15:24;8.20;99.90
10451;DHT22;5273;51.290;6.918;2024-03-02T02:20:19;8.30;99.90
10451;DHT22;5273;51.290;6.918;2024-03-02T02:22:55;8.60;99.90
10451;DHT22;5273;51.290;6.918;2024-03-02T02:30:19;8.40;99.90
10451;DHT22;5273;51.290;6.918;2024-03-02T02:40:10;8.40;99.90
10451;DHT22;5273;51.290;6.918;2024-03-02T02:45:05;8.40;99.90
10451;DHT22;5273;51.290;6.918;2024-03-02T02:52:31;8.50;99.90
10451;DHT22;5273;51.290;6.918;2024-03-02T02:57:29;8.60;99.90
10451;DHT22;5273;51.290;6.918;2024-03-02T03:14:47;8.20;99.90
10451;DHT22;5273;51.290;6.918;2024-03-02T03:31:58;8.50;99.90
10451;DHT22;5273;51.290;6.918;2024-03-02T03:34:25;8.40;99.90
10451;DHT22;5273;51.290;6.918;2024-03-02T03:49:09;8.40;99.90
10451;DHT22;5273;51.290;6.918;2024-03-02T04:06:20;8.20;99.90
10451;DHT22;5273;51.290;6.918;2024-03-02T04:23:32;8.00;99.90
10451;DHT22;5273;51.290;6.918;2024-03-02T04:40:43;7.90;99.90
10451;DHT22;5273;51.290;6.918;2024-03-02T04:58:23;7.70;99.90
10451;DHT22;5273;51.290;6.918;2024-03-02T05:15:34;7.60;99.90
10451;DHT22;5273;51.290;6.918;2024-03-02T05:30:19;7.70;99.90
10451;DHT22;5273;51.290;6.918;2024-03-02T05:32:47;7.90;99.90
10451;DHT22;5273;51.290;6.918;2024-03-02T05:40:09;7.30;99.90
10451;DHT22;5273;51.290;6.918;2024-03-02T05:45:05;7.60;99.90
10451;DHT22;5273;51.290;6.918;2024-03-02T05:50:01;7.30;99.90
10451;DHT22;5273;51.290;6.918;2024-03-02T06:00:11;7.00;99.90
10451;DHT22;5273;51.290;6.918;2024-03-02T06:02:39;7.10;99.90
10451;DHT22;5273;51.290;6.918;2024-03-02T06:05:07;7.10;99.90
10451;DHT22;5273;51.290;6.918;2024-03-02T06:22:19;7.00;99.90
10451;DHT22;5273;51.290;6.918;2024-03-02T06:39:31;7.20;99.90
10451;DHT22;5273;51.290;6.918;2024-03-02T06:56:44;8.90;99.90
10451;DHT22;5273;51.290;6.918;2024-03-02T07:01:37;9.50;99.90
10451;DHT22;5273;51.290;6.918;2024-03-02T07:04:04;10.00;99.90
10451;DHT22;5273;51.290;6.918;2024-03-02T07:06:31;11.00;99.90
10451;DHT22;5273;51.290;6.918;2024-03-02T07:11:25;12.30;99.90
10451;DHT22;5273;51.290;6.918;2024-03-02T07:13:53;12.10;94.40
10451;DHT22;5273;51.290;6.918;2024-03-02T07:16:20;12.70;99.90
10451;DHT22;5273;51.290;6.918;2024-03-02T07:18:54;13.20;99.90
10451;DHT22;5273;51.290;6.918;2024-03-02T07:23:49;14.00;99.90
10451;DHT22;5273;51.290;6.918;2024-03-02T07:26:16;14.00;99.40
10451;DHT22;5273;51.290;6.918;2024-03-02T07:28:44;13.00;99.70
10451;DHT22;5273;51.290;6.918;2024-03-02T07:31:13;12.50;91.00
10451;DHT22;5273;51.290;6.918;2024-03-02T07:33:39;12.30;99.90
10451;DHT22;5273;51.290;6.918;2024-03-02T07:36:07;12.30;93.30
10451;DHT22;5273;51.290;6.918;2024-03-02T07:41:01;13.30;99.90
10451;DHT22;5273;51.290;6.918;2024-03-02T07:43:30;14.50;99.90
10451;DHT22;5273;51.290;6.918;2024-03-02T07:45:57;15.00;98.10
10451;DHT22;5273;51.290;6.918;2024-03-02T07:48:25;15.70;82.90
10451;DHT22;5273;51.290;6.918;2024-03-02T07:50:52;15.20;94.70
10451;DHT22;5273;51.290;6.918;2024-03-02T07:53:19;15.50;95.00
10451;DHT22;5273;51.290;6.918;2024-03-02T07:58:13;16.90;94.10
10451;DHT22;5273;51.290;6.918;2024-03-02T08:00:40;17.20;92.80
10451;DHT22;5273;51.290;6.918;2024-03-02T08:03:07;17.60;91.50
10451;DHT22;5273;51.290;6.918;2024-03-02T08:05:38;18.20;86.50
10451;DHT22;5273;51.290;6.918;2024-03-02T08:08:05;19.60;85.00
10451;DHT22;5273;51.290;6.918;2024-03-02T08:20:21;20.30;62.80
10451;DHT22;5273;51.290;6.918;2024-03-02T08:22:50;21.30;62.70
10451;DHT22;5273;51.290;6.918;2024-03-02T08:25:17;20.30;55.00
10451;DHT22;5273;51.290;6.918;2024-03-02T08:27:44;21.20;73.00
10451;DHT22;5273;51.290;6.918;2024-03-02T08:30:12;21.50;62.70
10451;DHT22;5273;51.290;6.918;2024-03-02T08:35:07;22.10;58.80
10451;DHT22;5273;51.290;6.918;2024-03-02T08:37:34;22.10;57.70
10451;DHT22;5273;51.290;6.918;2024-03-02T08:40:02;22.30;68.60
10451;DHT22;5273;51.290;6.918;2024-03-02T08:42:32;22.10;65.50
10451;DHT22;5273;51.290;6.918;2024-03-02T08:49:54;22.30;57.40
10451;DHT22;5273;51.290;6.918;2024-03-02T08:54:48;21.80;63.90
10451;DHT22;5273;51.290;6.918;2024-03-02T08:57:17;22.10;49.30
10451;DHT22;5273;51.290;6.918;2024-03-02T09:02:11;21.50;64.40
10451;DHT22;5273;51.290;6.918;2024-03-02T09:07:04;21.40;55.70
10451;DHT22;5273;51.290;6.918;2024-03-02T09:09:32;21.50;66.40
10451;DHT22;5273;51.290;6.918;2024-03-02T09:14:28;21.50;49.80
10451;DHT22;5273;51.290;6.918;2024-03-02T09:21:49;22.00;63.20
10451;DHT22;5273;51.290;6.918;2024-03-02T09:24:16;22.30;54.00
10451;DHT22;5273;51.290;6.918;2024-03-02T09:29:10;22.30;65.70
10451;DHT22;5273;51.290;6.918;2024-03-02T09:31:40;22.10;49.30
10451;DHT22;5273;51.290;6.918;2024-03-02T09:43:56;22.70;60.20
10451;DHT22;5273;51.290;6.918;2024-03-02T09:46:24;22.20;60.80
10451;DHT22;5273;51.290;6.918;2024-03-02T09:48:52;22.10;48.60
10451;DHT22;5273;51.290;6.918;2024-03-02T09:51:19;22.30;47.40
10451;DHT22;5273;51.290;6.918;2024-03-02T09:53:47;22.30;48.30
10451;DHT22;5273;51.290;6.918;2024-03-02T09:56:14;21.80;61.10
10451;DHT22;5273;51.290;6.918;2024-03-02T09:58:44;22.60;63.10
10451;DHT22;5273;51.290;6.918;2024-03-02T10:01:10;22.00;59.80
10451;DHT22;5273;51.290;6.918;2024-03-02T10:03:37;23.30;59.10
10451;DHT22;5273;51.290;6.918;2024-03-02T10:06:20;23.50;45.50
10451;DHT22;5273;51.290;6.918;2024-03-02T10:11:30;24.50;45.10
10451;DHT22;5273;51.290;6.918;2024-03-02T10:14:05;24.50;56.00
10451;DHT22;5273;51.290;6.918;2024-03-02T10:16:34;24.80;55.70
10451;DHT22;5273;51.290;6.918;2024-03-02T10:19:15;24.50;55.20
10451;DHT22;5273;51.290;6.918;2024-03-02T10:21:44;24.80;42.60
10451;DHT22;5273;51.290;6.918;2024-03-02T10:29:07;25.80;53.00
10451;DHT22;5273;51.290;6.918;2024-03-02T10:31:37;25.00;40.90
10451;DHT22;5273;51.290;6.918;2024-03-02T10:34:04;24.60;54.40
10451;DHT22;5273;51.290;6.918;2024-03-02T10:36:31;24.20;55.10
10451;DHT22;5273;51.290;6.918;2024-03-02T10:39:02;23.80;42.50
10451;DHT22;5273;51.290;6.918;2024-03-02T10:41:31;23.90;43.20
10451;DHT22;5273;51.290;6.918;2024-03-02T10:43:59;23.90;44.60
10451;DHT22;5273;51.290;6.918;2024-03-02T10:46:28;23.50;55.90
10451;DHT22;5273;51.290;6.918;2024-03-02T10:48:55;23.00;56.30
10451;DHT22;5273;51.290;6.918;2024-03-02T10:51:24;22.70;58.00
10451;DHT22;5273;51.290;6.918;2024-03-02T10:53:51;21.20;55.50
10451;DHT22;5273;51.290;6.918;2024-03-02T10:56:27;19.50;60.40
10451;DHT22;5273;51.290;6.918;2024-03-02T10:59:01;19.30;66.50
10451;DHT22;5273;51.290;6.918;2024-03-02T11:01:29;19.80;50.90
10451;DHT22;5273;51.290;6.918;2024-03-02T11:03:58;19.80;50.70
10451;DHT22;5273;51.290;6.918;2024-03-02T11:06:27;19.70;49.90
10451;DHT22;5273;51.290;6.918;2024-03-02T11:08:55;19.90;59.00
10451;DHT22;5273;51.290;6.918;2024-03-02T11:11:30;19.40;68.10
10451;DHT22;5273;51.290;6.918;2024-03-02T11:14:01;18.70;49.80
10451;DHT22;5273;51.290;6.918;2024-03-02T11:16:35;18.30;52.60
10451;DHT22;5273;51.290;6.918;2024-03-02T11:19:04;18.10;52.20
10451;DHT22;5273;51.290;6.918;2024-03-02T11:21:32;17.80;52.50
10451;DHT22;5273;51.290;6.918;2024-03-02T11:26:29;17.50;74.90
10451;DHT22;5273;51.290;6.918;2024-03-02T11:31:57;16.80;74.90
10451;DHT22;5273;51.290;6.918;2024-03-02T11:34:29;16.80;56.40
10451;DHT22;5273;51.290;6.918;2024-03-02T11:36:56;16.70;72.90
10451;DHT22;5273;51.290;6.918;2024-03-02T11:41:53;16.60;77.80
10451;DHT22;5273;51.290;6.918;2024-03-02T11:44:20;16.40;75.50
10451;DHT22;5273;51.290;6.918;2024-03-02T11:46:52;16.50;62.60
10451;DHT22;5273;51.290;6.918;2024-03-02T11:49:36;16.60;75.90
10451;DHT22;5273;51.290;6.918;2024-03-02T11:52:05;16.30;78.00
10451;DHT22;5273;51.290;6.918;2024-03-02T11:54:33;16.50;58.10
10451;DHT22;5273;51.290;6.918;2024-03-02T11:57:03;17.00;79.80
10451;DHT22;5273;51.290;6.918;2024-03-02T11:59:30;16.20;59.30
10451;DHT22;5273;51.290;6.918;2024-03-02T12:01:57;16.50;77.90
10451;DHT22;5273;51.290;6.918;2024-03-02T12:04:25;16.10;76.80
10451;DHT22;5273;51.290;6.918;2024-03-02T12:06:54;16.00;58.50
10451;DHT22;5273;51.290;6.918;2024-03-02T12:09:22;16.10;81.40
10451;DHT22;5273;51.290;6.918;2024-03-02T12:12:02;15.50;59.60
10451;DHT22;5273;51.290;6.918;2024-03-02T12:14:30;15.60;82.30
10451;DHT22;5273;51.290;6.918;2024-03-02T12:19:25;16.10;77.80
10451;DHT22;5273;51.290;6.918;2024-03-02T12:21:53;15.60;62.20
10451;DHT22;5273;51.290;6.918;2024-03-02T12:24:20;15.80;82.30
10451;DHT22;5273;51.290;6.918;2024-03-02T12:26:48;15.50;83.10
10451;DHT22;5273;51.290;6.918;2024-03-02T12:29:18;15.60;83.10
10451;DHT22;5273;51.290;6.918;2024-03-02T12:34:13;15.40;62.10
10451;DHT22;5273;51.290;6.918;2024-03-02T12:36:41;15.90;84.20
10451;DHT22;5273;51.290;6.918;2024-03-02T12:41:36;15.20;85.30
10451;DHT22;5273;51.290;6.918;2024-03-02T12:44:04;14.70;85.40
10451;DHT22;5273;51.290;6.918;2024-03-02T12:46:32;15.00;86.30
10451;DHT22;5273;51.290;6.918;2024-03-02T12:49:07;15.10;88.60
10451;DHT22;5273;51.290;6.918;2024-03-02T12:51:34;14.90;86.90
10451;DHT22;5273;51.290;6.918;2024-03-02T12:54:01;15.40;87.90
10451;DHT22;5273;51.290;6.918;2024-03-02T12:56:29;15.10;81.00
10451;DHT22;5273;51.290;6.918;2024-03-02T12:58:56;15.00;64.10
10451;DHT22;5273;51.290;6.918;2024-03-02T13:03:53;14.90;89.00
10451;DHT22;5273;51.290;6.918;2024-03-02T13:06:21;14.50;88.50
10451;DHT22;5273;51.290;6.918;2024-03-02T13:08:48;14.30;88.90
10451;DHT22;5273;51.290;6.918;2024-03-02T13:11:16;14.30;90.30
10451;DHT22;5273;51.290;6.918;2024-03-02T13:13:43;14.60;87.30
10451;DHT22;5273;51.290;6.918;2024-03-02T13:16:10;14.30;90.40
10451;DHT22;5273;51.290;6.918;2024-03-02T13:18:38;14.40;90.40
10451;DHT22;5273;51.290;6.918;2024-03-02T13:21:07;14.40;91.00
10451;DHT22;5273;51.290;6.918;2024-03-02T13:26:01;14.00;90.70
10451;DHT22;5273;51.290;6.918;2024-03-02T13:28:28;14.10;90.70
10451;DHT22;5273;51.290;6.918;2024-03-02T13:30:55;14.10;90.70
10451;DHT22;5273;51.290;6.918;2024-03-02T13:33:21;14.10;91.00
10451;DHT22;5273;51.290;6.918;2024-03-02T13:35:49;14.10;81.40
10451;DHT22;5273;51.290;6.918;2024-03-02T13:38:18;14.10;70.20
10451;DHT22;5273;51.290;6.918;2024-03-02T13:40:45;14.60;70.80
10451;DHT22;5273;51.290;6.918;2024-03-02T13:43:13;13.80;91.20
10451;DHT22;5273;51.290;6.918;2024-03-02T13:48:07;14.20;91.30
10451;DHT22;5273;51.290;6.918;2024-03-02T13:50:34;14.30;92.50
10451;DHT22;5273;51.290;6.918;2024-03-02T13:55:31;14.40;70.60
10451;DHT22;5273;51.290;6.918;2024-03-02T13:57:58;14.50;91.90
10451;DHT22;5273;51.290;6.918;2024-03-02T14:00:25;14.20;81.40
10451;DHT22;5273;51.290;6.918;2024-03-02T14:02:52;14.20;80.20
10451;DHT22;5273;51.290;6.918;2024-03-02T14:07:46;14.20;91.60
10451;DHT22;5273;51.290;6.918;2024-03-02T14:12:42;14.70;73.60
10451;DHT22;5273;51.290;6.918;2024-03-02T14:15:09;14.40;69.40
10451;DHT22;5273;51.290;6.918;2024-03-02T14:17:36;14.20;91.30
10451;DHT22;5273;51.290;6.918;2024-03-02T14:20:04;14.40;90.80
10451;DHT22;5273;51.290;6.918;2024-03-02T14:24:59;15.00;91.20
10451;DHT22;5273;51.290;6.918;2024-03-02T14:27:26;14.60;91.20
10451;DHT22;5273;51.290;6.918;2024-03-02T14:29:54;14.90;91.60
10451;DHT22;5273;51.290;6.918;2024-03-02T14:32:21;14.90;90.90
10451;DHT22;5273;51.290;6.918;2024-03-02T14:37:15;14.90;89.10
10451;DHT22;5273;51.290;6.918;2024-03-02T14:39:42;14.70;90.70
10451;DHT22;5273;51.290;6.918;2024-03-02T14:47:05;14.50;69.00
10451;DHT22;5273;51.290;6.918;2024-03-02T14:49:32;14.70;91.50
10451;DHT22;5273;51.290;6.918;2024-03-02T14:56:57;14.50;91.80
10451;DHT22;5273;51.290;6.918;2024-03-02T14:59:23;14.20;91.30
10451;DHT22;5273;51.290;6.918;2024-03-02T15:01:50;14.00;91.60
10451;DHT22;5273;51.290;6.918;2024-03-02T15:04:19;14.90;72.90
10451;DHT22;5273;51.290;6.918;2024-03-02T15:06:46;14.40;91.80
10451;DHT22;5273;51.290;6.918;2024-03-02T15:09:13;14.30;92.50
10451;DHT22;5273;51.290;6.918;2024-03-02T15:11:44;13.90;92.20
10451;DHT22;5273;51.290;6.918;2024-03-02T15:14:11;13.80;78.20
10451;DHT22;5273;51.290;6.918;2024-03-02T15:16:38;13.60;92.80
10451;DHT22;5273;51.290;6.918;2024-03-02T15:21:33;14.10;92.50
10451;DHT22;5273;51.290;6.918;2024-03-02T15:26:27;14.30;93.00
10451;DHT22;5273;51.290;6.918;2024-03-02T15:28:54;13.90;92.10
10451;DHT22;5273;51.290;6.918;2024-03-02T15:31:23;13.70;80.80
10451;DHT22;5273;51.290;6.918;2024-03-02T15:33:49;13.90;93.40
10451;DHT22;5273;51.290;6.918;2024-03-02T15:38:45;14.10;93.00
10451;DHT22;5273;51.290;6.918;2024-03-02T15:43:39;13.90;93.80
10451;DHT22;5273;51.290;6.918;2024-03-02T15:46:08;14.20;94.10
10451;DHT22;5273;51.290;6.918;2024-03-02T15:48:35;14.00;93.60
10451;DHT22;5273;51.290;6.918;2024-03-02T15:53:29;13.60;93.00
10451;DHT22;5273;51.290;6.918;2024-03-02T15:55:58;13.70;75.00
10451;DHT22;5273;51.290;6.918;2024-03-02T15:58:25;13.90;93.20
10451;DHT22;5273;51.290;6.918;2024-03-02T16:00:51;13.70;93.40
10451;DHT22;5273;51.290;6.918;2024-03-02T16:03:18;14.00;93.70
10451;DHT22;5273;51.290;6.918;2024-03-02T16:08:12;13.70;93.40
10451;DHT22;5273;51.290;6.918;2024-03-02T16:13:08;13.70;93.50
10451;DHT22;5273;51.290;6.918;2024-03-02T16:15:34;13.40;93.70
10451;DHT22;5273;51.290;6.918;2024-03-02T16:20:28;13.80;93.50
10451;DHT22;5273;51.290;6.918;2024-03-02T16:22:55;13.40;89.80
10451;DHT22;5273;51.290;6.918;2024-03-02T16:25:22;13.80;84.30
10451;DHT22;5273;51.290;6.918;2024-03-02T16:27:50;13.80;93.30
10451;DHT22;5273;51.290;6.918;2024-03-02T16:30:19;14.00;90.80
10451;DHT22;5273;51.290;6.918;2024-03-02T16:32:46;13.30;93.30
10451;DHT22;5273;51.290;6.918;2024-03-02T16:35:14;13.90;78.10
10451;DHT22;5273;51.290;6.918;2024-03-02T16:37:41;13.40;92.50
10451;DHT22;5273;51.290;6.918;2024-03-02T16:40:09;13.70;76.90
10451;DHT22;5273;51.290;6.918;2024-03-02T16:42:36;13.40;93.90
10451;DHT22;5273;51.290;6.918;2024-03-02T16:45:03;13.50;75.30
10451;DHT22;5273;51.290;6.918;2024-03-02T16:47:32;13.30;89.10
10451;DHT22;5273;51.290;6.918;2024-03-02T16:49:59;13.80;93.40
10451;DHT22;5273;51.290;6.918;2024-03-02T16:52:26;13.20;92.00
10451;DHT22;5273;51.290;6.918;2024-03-02T16:57:21;13.10;94.20
10451;DHT22;5273;51.290;6.918;2024-03-02T16:59:48;13.20;94.60
10451;DHT22;5273;51.290;6.918;2024-03-02T17:02:15;13.50;95.00
10451;DHT22;5273;51.290;6.918;2024-03-02T17:04:43;13.10;95.60
10451;DHT22;5273;51.290;6.918;2024-03-02T17:07:10;13.30;95.90
10451;DHT22;5273;51.290;6.918;2024-03-02T17:09:37;13.20;93.40
10451;DHT22;5273;51.290;6.918;2024-03-02T17:12:04;13.40;95.20
10451;DHT22;5273;51.290;6.918;2024-03-02T17:14:31;13.20;95.60
10451;DHT22;5273;51.290;6.918;2024-03-02T17:21:55;13.00;93.10
10451;DHT22;5273;51.290;6.918;2024-03-02T17:24:22;12.80;95.50
10451;DHT22;5273;51.290;6.918;2024-03-02T17:34:09;12.70;95.60
10451;DHT22;5273;51.290;6.918;2024-03-02T17:36:35;13.10;95.50
10451;DHT22;5273;51.290;6.918;2024-03-02T17:39:04;13.30;95.30
10451;DHT22;5273;51.290;6.918;2024-03-02T17:41:30;13.20;95.30
10451;DHT22;5273;51.290;6.918;2024-03-02T17:43:57;13.00;95.20
10451;DHT22;5273;51.290;6.918;2024-03-02T17:46:24;12.70;95.10
10451;DHT22;5273;51.290;6.918;2024-03-02T17:48:51;12.70;94.90
10451;DHT22;5273;51.290;6.918;2024-03-02T17:53:45;12.80;95.00
10451;DHT22;5273;51.290;6.918;2024-03-02T17:56:16;12.90;77.70
10451;DHT22;5273;51.290;6.918;2024-03-02T18:01:10;12.60;92.80
10451;DHT22;5273;51.290;6.918;2024-03-02T18:03:37;13.30;85.30
10451;DHT22;5273;51.290;6.918;2024-03-02T18:06:05;13.00;95.20
10451;DHT22;5273;51.290;6.918;2024-03-02T18:08:31;12.90;86.30
10451;DHT22;5273;51.290;6.918;2024-03-02T18:10:59;12.70;94.60
10451;DHT22;5273;51.290;6.918;2024-03-02T18:13:28;12.60;94.30
10451;DHT22;5273;51.290;6.918;2024-03-02T18:18:23;12.60;93.50
10451;DHT22;5273;51.290;6.918;2024-03-02T18:20:50;13.20;87.90
10451;DHT22;5273;51.290;6.918;2024-03-02T18:23:17;12.70;93.90
10451;DHT22;5273;51.290;6.918;2024-03-02T18:25:43;13.20;94.80
10451;DHT22;5273;51.290;6.918;2024-03-02T18:28:12;13.20;94.00
10451;DHT22;5273;51.290;6.918;2024-03-02T18:30:41;12.90;75.50
10451;DHT22;5273;51.290;6.918;2024-03-02T18:33:07;12.70;94.30
10451;DHT22;5273;51.290;6.918;2024-03-02T18:35:34;12.90;94.40
10451;DHT22;5273;51.290;6.918;2024-03-02T18:38:01;13.10;77.60
10451;DHT22;5273;51.290;6.918;2024-03-02T18:40:29;12.60;87.70
10451;DHT22;5273;51.290;6.918;2024-03-02T18:42:56;12.90;88.30
10451;DHT22;5273;51.290;6.918;2024-03-02T18:45:24;12.90;87.60
10451;DHT22;5273;51.290;6.918;2024-03-02T18:47:52;12.90;94.80
10451;DHT22;5273;51.290;6.918;2024-03-02T18:50:19;12.50;94.60
10451;DHT22;5273;51.290;6.918;2024-03-02T18:52:46;12.60;94.60
10451;DHT22;5273;51.290;6.918;2024-03-02T18:55:13;12.90;95.10
10451;DHT22;5273;51.290;6.918;2024-03-02T19:00:08;12.60;82.30
10451;DHT22;5273;51.290;6.918;2024-03-02T19:02:35;12.60;95.10
10451;DHT22;5273;51.290;6.918;2024-03-02T19:05:04;12.90;93.20
10451;DHT22;5273;51.290;6.918;2024-03-02T19:07:31;12.60;95.00
10451;DHT22;5273;51.290;6.918;2024-03-02T19:09:58;12.50;95.10
10451;DHT22;5273;51.290;6.918;2024-03-02T19:19:47;12.50;96.10
10451;DHT22;5273;51.290;6.918;2024-03-02T19:22:15;12.90;96.40
10451;DHT22;5273;51.290;6.918;2024-03-02T19:24:42;12.70;96.20
10451;DHT22;5273;51.290;6.918;2024-03-02T19:27:09;12.90;96.40
10451;DHT22;5273;51.290;6.918;2024-03-02T19:29:36;12.70;82.10
10451;DHT22;5273;51.290;6.918;2024-03-02T19:32:03;13.00;88.50
10451;DHT22;5273;51.290;6.918;2024-03-02T19:34:30;12.50;96.00
10451;DHT22;5273;51.290;6.918;2024-03-02T19:36:57;12.90;96.10
10451;DHT22;5273;51.290;6.918;2024-03-02T19:39:26;12.80;95.80
10451;DHT22;5273;51.290;6.918;2024-03-02T19:41:54;12.60;80.70
10451;DHT22;5273;51.290;6.918;2024-03-02T19:44:21;12.40;95.80
10451;DHT22;5273;51.290;6.918;2024-03-02T19:46:51;12.90;96.10
10451;DHT22;5273;51.290;6.918;2024-03-02T19:49:18;13.00;96.20
10451;DHT22;5273;51.290;6.918;2024-03-02T19:51:46;12.80;96.40
10451;DHT22;5273;51.290;6.918;2024-03-02T19:54:12;12.60;96.50
10451;DHT22;5273;51.290;6.918;2024-03-02T19:56:41;13.10;82.20
10451;DHT22;5273;51.290;6.918;2024-03-02T19:59:09;12.60;96.60
10451;DHT22;5273;51.290;6.918;2024-03-02T20:01:38;12.50;96.60
10451;DHT22;5273;51.290;6.918;2024-03-02T20:04:05;12.20;93.10
10451;DHT22;5273;51.290;6.918;2024-03-02T20:06:32;12.50;96.70
10451;DHT22;5273;51.290;6.918;2024-03-02T20:11:26;12.30;96.70
10451;DHT22;5273;51.290;6.918;2024-03-02T20:13:58;12.10;96.40
10451;DHT22;5273;51.290;6.918;2024-03-02T20:18:51;12.30;96.60
10451;DHT22;5273;51.290;6.918;2024-03-02T20:21:18;12.60;96.90
10451;DHT22;5273;51.290;6.918;2024-03-02T20:28:38;12.20;96.80
10451;DHT22;5273;51.290;6.918;2024-03-02T20:31:06;12.40;96.70
10451;DHT22;5273;51.290;6.918;2024-03-02T20:33:34;12.80;97.40
10451;DHT22;5273;51.290;6.918;2024-03-02T20:40:55;12.40;96.90
10451;DHT22;5273;51.290;6.918;2024-03-02T20:43:22;12.70;90.20
10451;DHT22;5273;51.290;6.918;2024-03-02T20:45:49;12.70;97.30
10451;DHT22;5273;51.290;6.918;2024-03-02T20:48:17;12.60;90.80
10451;DHT22;5273;51.290;6.918;2024-03-02T20:50:44;12.20;93.00
10451;DHT22;5273;51.290;6.918;2024-03-02T20:53:11;12.00;97.50
10451;DHT22;5273;51.290;6.918;2024-03-02T20:55:38;12.00;95.10
10451;DHT22;5273;51.290;6.918;2024-03-02T20:58:04;12.60;88.80
10451;DHT22;5273;51.290;6.918;2024-03-02T21:00:31;12.40;98.10
10451;DHT22;5273;51.290;6.918;2024-03-02T21:02:58;12.20;98.20
10451;DHT22;5273;51.290;6.918;2024-03-02T21:05:26;11.70;85.20
10451;DHT22;5273;51.290;6.918;2024-03-02T21:07:53;12.30;93.40
10451;DHT22;5273;51.290;6.918;2024-03-02T21:12:47;12.10;98.60
10451;DHT22;5273;51.290;6.918;2024-03-02T21:15:14;12.10;98.60
10451;DHT22;5273;51.290;6.918;2024-03-02T21:17:41;12.30;98.90
10451;DHT22;5273;51.290;6.918;2024-03-02T21:20:09;12.00;99.00
10451;DHT22;5273;51.290;6.918;2024-03-02T21:22:39;12.00;99.00
10451;DHT22;5273;51.290;6.918;2024-03-02T21:25:09;12.10;86.90
10451;DHT22;5273;51.290;6.918;2024-03-02T21:27:37;12.30;94.30
10451;DHT22;5273;51.290;6.918;2024-03-02T21:30:05;11.90;99.30
10451;DHT22;5273;51.290;6.918;2024-03-02T21:32:32;12.40;99.90
10451;DHT22;5273;51.290;6.918;2024-03-02T21:34:59;12.40;97.20
10451;DHT22;5273;51.290;6.918;2024-03-02T21:37:27;11.70;95.80
10451;DHT22;5273;51.290;6.918;2024-03-02T21:39:55;12.30;92.10
10451;DHT22;5273;51.290;6.918;2024-03-02T21:42:23;11.90;98.50
10451;DHT22;5273;51.290;6.918;2024-03-02T21:44:50;11.90;99.90
10451;DHT22;5273;51.290;6.918;2024-03-02T21:49:44;12.10;99.90
10451;DHT22;5273;51.290;6.918;2024-03-02T21:52:11;11.40;92.80
10451;DHT22;5273;51.290;6.918;2024-03-02T21:54:38;11.80;99.90
10451;DHT22;5273;51.290;6.918;2024-03-02T21:57:06;11.70;90.40
10451;DHT22;5273;51.290;6.918;2024-03-02T21:59:37;11.80;99.90
10451;DHT22;5273;51.290;6.918;2024-03-02T22:02:05;11.60;90.90
10451;DHT22;5273;51.290;6.918;2024-03-02T22:04:32;11.40;99.90
10451;DHT22;5273;51.290;6.918;2024-03-02T22:06:58;12.10;99.30
10451;DHT22;5273;51.290;6.918;2024-03-02T22:09:25;12.00;99.90
10451;DHT22;5273;51.290;6.918;2024-03-02T22:11:52;11.80;99.90
10451;DHT22;5273;51.290;6.918;2024-03-02T22:14:21;11.50;99.90
10451;DHT22;5273;51.290;6.918;2024-03-02T22:16:47;11.40;99.90
10451;DHT22;5273;51.290;6.918;2024-03-02T22:19:14;11.80;93.60
10451;DHT22;5273;51.290;6.918;2024-03-02T22:21:41;12.00;99.90
10451;DHT22;5273;51.290;6.918;2024-03-02T22:26:36;11.70;99.90
10451;DHT22;5273;51.290;6.918;2024-03-02T22:29:03;11.60;99.90
10451;DHT22;5273;51.290;6.918;2024-03-02T22:31:31;12.10;95.70
10451;DHT22;5273;51.290;6.918;2024-03-02T22:33:58;12.10;99.90
10451;DHT22;5273;51.290;6.918;2024-03-02T22:36:24;12.00;99.90
10451;DHT22;5273;51.290;6.918;2024-03-02T22:41:18;11.40;99.90
10451;DHT22;5273;51.290;6.918;2024-03-02T22:43:45;11.80;99.90
10451;DHT22;5273;51.290;6.918;2024-03-02T22:46:13;11.60;97.30
10451;DHT22;5273;51.290;6.918;2024-03-02T22:48:42;11.40;96.40
10451;DHT22;5273;51.290;6.918;2024-03-02T22:53:36;11.70;99.90
10451;DHT22;5273;51.290;6.918;2024-03-02T22:56:03;11.50;92.90
10451;DHT22;5273;51.290;6.918;2024-03-02T22:58:30;11.40;94.80
10451;DHT22;5273;51.290;6.918;2024-03-02T23:03:24;11.70;99.90
10451;DHT22;5273;51.290;6.918;2024-03-02T23:05:52;11.80;94.50
10451;DHT22;5273;51.290;6.918;2024-03-02T23:08:19;11.50;99.60
10451;DHT22;5273;51.290;6.918;2024-03-02T23:10:46;11.80;97.70
10451;DHT22;5273;51.290;6.918;2024-03-02T23:13:13;11.50;99.90
10451;DHT22;5273;51.290;6.918;2024-03-02T23:15:40;11.10;99.90
10451;DHT22;5273;51.290;6.918;2024-03-02T23:18:07;11.40;99.90
10451;DHT22;5273;51.290;6.918;2024-03-02T23:20:33;11.60;99.90
10451;DHT22;5273;51.290;6.918;2024-03-02T23:23:02;11.30;93.60
10451;DHT22;5273;51.290;6.918;2024-03-02T23:25:30;11.30;93.90
10451;DHT22;5273;51.290;6.918;2024-03-02T23:27:57;11.30;99.90
10451;DHT22;5273;51.290;6.918;2024-03-02T23:32:51;11.10;99.90
10451;DHT22;5273;51.290;6.918;2024-03-02T23:35:18;11.00;99.90
10451;DHT22;5273;51.290;6.918;2024-03-02T23:40:15;11.20;93.80
10451;DHT22;5273;51.290;6.918;2024-03-02T23:43:01;11.50;99.90
10451;DHT22;5273;51.290;6.918;2024-03-02T23:45:28;11.50;99.30
10451;DHT22;5273;51.290;6.918;2024-03-02T23:47:55;11.20;99.90
10451;DHT22;5273;51.290;6.918;2024-03-02T23:52:49;11.30;99.90
10451;DHT22;5273;51.290;6.918;2024-03-02T23:55:17;11.30;99.90
